VLG25JF LEZL-LEPA
Flight info
| Callsign | VLG25JF |
|---|---|
| Flight time | 1h 14m |
| Altitude | 36000 |
| Route | MAR DCT MGA DCT RIXUR DCT UNTOS DCT ROLAS DCT TOSGA DCT RESTU DCT ALT DCT SUMMO DCT MITOS DCT BRUNO DCT RUXET |
| Aircraft | A320/M-SDE3FGHIRWY/LB1 |
Departure
| Time | 2026-04-19 23:21 |
|---|---|
| Airport | Seville Airport (LEZL) |
Arrival
| Time | 2026-04-20 00:35 |
|---|---|
| Airport | Palma de Mallorca Airport (LEPA) |
| Time | Latitude | Longitude | Altitude | Speed | Heading |
|---|---|---|---|---|---|
| 2026-04-19 22:54 | 37.42204 | -5.89958 | 116 ft | 0 kts | 345° |
| 2026-04-19 23:09 | 37.42194 | -5.89954 | 116 ft | 2 kts | 345° |
| 2026-04-19 23:09 | 37.42180 | -5.89950 | 116 ft | 2 kts | 345° |
| 2026-04-19 23:10 | 37.42166 | -5.89945 | 116 ft | 2 kts | 345° |
| 2026-04-19 23:10 | 37.42151 | -5.89940 | 116 ft | 2 kts | 345° |
| 2026-04-19 23:10 | 37.42137 | -5.89935 | 116 ft | 2 kts | 345° |
| 2026-04-19 23:10 | 37.42121 | -5.89936 | 116 ft | 2 kts | 27° |
| 2026-04-19 23:11 | 37.42115 | -5.89942 | 116 ft | 1 kts | 46° |
| 2026-04-19 23:11 | 37.42111 | -5.89947 | 116 ft | 0 kts | 45° |
| 2026-04-19 23:13 | 37.42112 | -5.89946 | 115 ft | 1 kts | 45° |
| 2026-04-19 23:13 | 37.42129 | -5.89924 | 115 ft | 4 kts | 45° |
| 2026-04-19 23:13 | 37.42157 | -5.89889 | 116 ft | 7 kts | 45° |
| 2026-04-19 23:13 | 37.42199 | -5.89837 | 116 ft | 8 kts | 45° |
| 2026-04-19 23:14 | 37.42244 | -5.89780 | 116 ft | 9 kts | 45° |
| 2026-04-19 23:14 | 37.42247 | -5.89707 | 115 ft | 10 kts | 123° |
| 2026-04-19 23:14 | 37.42196 | -5.89633 | 116 ft | 12 kts | 135° |
| 2026-04-19 23:14 | 37.42132 | -5.89549 | 115 ft | 14 kts | 133° |
| 2026-04-19 23:15 | 37.42059 | -5.89455 | 116 ft | 15 kts | 135° |
| 2026-04-19 23:15 | 37.41987 | -5.89354 | 116 ft | 15 kts | 113° |
| 2026-04-19 23:15 | 37.41980 | -5.89220 | 115 ft | 15 kts | 89° |
| 2026-04-19 23:15 | 37.41980 | -5.89086 | 115 ft | 15 kts | 89° |
| 2026-04-19 23:16 | 37.41983 | -5.88951 | 116 ft | 15 kts | 86° |
| 2026-04-19 23:16 | 37.41983 | -5.88818 | 115 ft | 15 kts | 90° |
| 2026-04-19 23:16 | 37.41983 | -5.88756 | 116 ft | 15 kts | 88° |
| 2026-04-19 23:16 | 37.41983 | -5.88637 | 116 ft | 15 kts | 90° |
| 2026-04-19 23:17 | 37.41983 | -5.88504 | 116 ft | 15 kts | 90° |
| 2026-04-19 23:17 | 37.41983 | -5.88372 | 116 ft | 15 kts | 90° |
| 2026-04-19 23:17 | 37.41983 | -5.88237 | 116 ft | 15 kts | 87° |
| 2026-04-19 23:17 | 37.41985 | -5.88105 | 116 ft | 15 kts | 90° |
| 2026-04-19 23:18 | 37.41984 | -5.87971 | 115 ft | 15 kts | 91° |
| 2026-04-19 23:18 | 37.41984 | -5.87839 | 116 ft | 15 kts | 89° |
| 2026-04-19 23:18 | 37.41986 | -5.87705 | 116 ft | 15 kts | 89° |
| 2026-04-19 23:18 | 37.41985 | -5.87574 | 115 ft | 15 kts | 97° |
| 2026-04-19 23:19 | 37.41945 | -5.87452 | 116 ft | 15 kts | 138° |
| 2026-04-19 23:19 | 37.41857 | -5.87422 | 115 ft | 8 kts | 186° |
| 2026-04-19 23:19 | 37.41805 | -5.87446 | 116 ft | 6 kts | 235° |
| 2026-04-19 23:19 | 37.41799 | -5.87484 | 115 ft | 0 kts | 273° |
| 2026-04-19 23:20 | 37.41801 | -5.87561 | 116 ft | 35 kts | 270° |
| 2026-04-19 23:20 | 37.41799 | -5.88192 | 116 ft | 106 kts | 269° |
| 2026-04-19 23:21 | 37.41795 | -5.89368 | 116 ft | 162 kts | 270° |
| 2026-04-19 23:21 | 37.41803 | -5.90896 | 449 ft | 181 kts | 270° |
| 2026-04-19 23:21 | 37.41826 | -5.92435 | 1189 ft | 177 kts | 275° |
| 2026-04-19 23:21 | 37.42105 | -5.93917 | 1899 ft | 176 kts | 299° |
| 2026-04-19 23:22 | 37.42773 | -5.95252 | 2369 ft | 189 kts | 302° |
| 2026-04-19 23:22 | 37.43373 | -5.96793 | 2757 ft | 206 kts | 291° |
| 2026-04-19 23:22 | 37.43784 | -5.98598 | 3167 ft | 223 kts | 283° |
| 2026-04-19 23:22 | 37.44051 | -6.00601 | 3518 ft | 245 kts | 278° |
| 2026-04-19 23:23 | 37.44174 | -6.02816 | 3990 ft | 264 kts | 266° |
| 2026-04-19 23:23 | 37.43747 | -6.05110 | 4686 ft | 273 kts | 246° |
| 2026-04-19 23:23 | 37.42749 | -6.07120 | 5527 ft | 276 kts | 227° |
| 2026-04-19 23:23 | 37.41278 | -6.08652 | 6354 ft | 278 kts | 208° |
| 2026-04-19 23:24 | 37.39505 | -6.09505 | 7177 ft | 279 kts | 189° |
| 2026-04-19 23:24 | 37.37604 | -6.09454 | 8000 ft | 279 kts | 162° |
| 2026-04-19 23:24 | 37.35918 | -6.08286 | 8854 ft | 278 kts | 135° |
| 2026-04-19 23:24 | 37.34865 | -6.06314 | 9667 ft | 280 kts | 111° |
| 2026-04-19 23:25 | 37.34245 | -6.03983 | 10479 ft | 283 kts | 108° |
| 2026-04-19 23:25 | 37.33654 | -6.01586 | 10938 ft | 299 kts | 108° |
| 2026-04-19 23:25 | 37.33015 | -5.99016 | 11300 ft | 317 kts | 109° |
| 2026-04-19 23:25 | 37.32335 | -5.96312 | 11634 ft | 335 kts | 109° |
| 2026-04-19 23:26 | 37.31727 | -5.93387 | 11975 ft | 353 kts | 97° |
| 2026-04-19 23:26 | 37.31957 | -5.90304 | 12581 ft | 363 kts | 78° |
| 2026-04-19 23:26 | 37.32626 | -5.87264 | 13389 ft | 364 kts | 75° |
| 2026-04-19 23:26 | 37.33352 | -5.84204 | 14084 ft | 367 kts | 75° |
| 2026-04-19 23:27 | 37.34061 | -5.81110 | 14759 ft | 371 kts | 76° |
| 2026-04-19 23:27 | 37.34746 | -5.77987 | 15429 ft | 374 kts | 77° |
| 2026-04-19 23:27 | 37.35419 | -5.74813 | 16087 ft | 377 kts | 77° |
| 2026-04-19 23:27 | 37.36075 | -5.71647 | 16722 ft | 380 kts | 77° |
| 2026-04-19 23:28 | 37.36736 | -5.68411 | 17350 ft | 383 kts | 78° |
| 2026-04-19 23:28 | 37.37384 | -5.65205 | 17951 ft | 386 kts | 78° |
| 2026-04-19 23:28 | 37.38039 | -5.61942 | 18545 ft | 388 kts | 78° |
| 2026-04-19 23:28 | 37.38703 | -5.58625 | 19131 ft | 391 kts | 78° |
| 2026-04-19 23:29 | 37.39367 | -5.55297 | 19701 ft | 394 kts | 78° |
| 2026-04-19 23:29 | 37.40034 | -5.51945 | 20257 ft | 397 kts | 78° |
| 2026-04-19 23:29 | 37.40701 | -5.48583 | 20800 ft | 399 kts | 78° |
| 2026-04-19 23:29 | 37.41367 | -5.45222 | 21327 ft | 402 kts | 78° |
| 2026-04-19 23:30 | 37.42040 | -5.41821 | 21842 ft | 404 kts | 78° |
| 2026-04-19 23:30 | 37.42725 | -5.38349 | 22352 ft | 407 kts | 78° |
| 2026-04-19 23:30 | 37.43405 | -5.34902 | 22838 ft | 410 kts | 79° |
| 2026-04-19 23:30 | 37.44086 | -5.31433 | 23324 ft | 412 kts | 79° |
| 2026-04-19 23:31 | 37.44775 | -5.27911 | 23801 ft | 414 kts | 79° |
| 2026-04-19 23:31 | 37.45459 | -5.24415 | 24246 ft | 417 kts | 79° |
| 2026-04-19 23:31 | 37.46150 | -5.20878 | 24681 ft | 419 kts | 79° |
| 2026-04-19 23:31 | 37.46851 | -5.17288 | 25108 ft | 421 kts | 79° |
| 2026-04-19 23:32 | 37.47549 | -5.13703 | 25519 ft | 423 kts | 79° |
| 2026-04-19 23:32 | 37.48251 | -5.10098 | 25916 ft | 426 kts | 79° |
| 2026-04-19 23:32 | 37.48956 | -5.06468 | 26308 ft | 427 kts | 79° |
| 2026-04-19 23:32 | 37.49661 | -5.02836 | 26680 ft | 429 kts | 79° |
| 2026-04-19 23:33 | 37.50366 | -4.99202 | 27029 ft | 432 kts | 79° |
| 2026-04-19 23:33 | 37.51077 | -4.95531 | 27344 ft | 434 kts | 79° |
| 2026-04-19 23:33 | 37.51791 | -4.91835 | 27649 ft | 437 kts | 79° |
| 2026-04-19 23:33 | 37.52507 | -4.88114 | 27951 ft | 440 kts | 79° |
| 2026-04-19 23:34 | 37.53227 | -4.84374 | 28240 ft | 442 kts | 79° |
| 2026-04-19 23:34 | 37.53952 | -4.80593 | 28507 ft | 445 kts | 79° |
| 2026-04-19 23:34 | 37.54681 | -4.76788 | 28769 ft | 448 kts | 79° |
| 2026-04-19 23:34 | 37.55406 | -4.72996 | 29040 ft | 449 kts | 79° |
| 2026-04-19 23:35 | 37.56140 | -4.69145 | 29326 ft | 450 kts | 79° |
| 2026-04-19 23:35 | 37.56865 | -4.65341 | 29684 ft | 450 kts | 79° |
| 2026-04-19 23:35 | 37.57587 | -4.61543 | 30086 ft | 447 kts | 79° |
| 2026-04-19 23:35 | 37.58309 | -4.57742 | 30478 ft | 446 kts | 79° |
| 2026-04-19 23:36 | 37.59024 | -4.53966 | 30854 ft | 444 kts | 79° |
| 2026-04-19 23:36 | 37.59743 | -4.50164 | 31223 ft | 442 kts | 79° |
| 2026-04-19 23:36 | 37.60445 | -4.46443 | 31574 ft | 441 kts | 79° |
| 2026-04-19 23:36 | 37.61151 | -4.42691 | 31921 ft | 439 kts | 79° |
| 2026-04-19 23:37 | 37.61853 | -4.38952 | 32254 ft | 438 kts | 79° |
| 2026-04-19 23:37 | 37.62553 | -4.35220 | 32577 ft | 437 kts | 79° |
| 2026-04-19 23:37 | 37.63248 | -4.31499 | 32904 ft | 435 kts | 80° |
| 2026-04-19 23:37 | 37.63938 | -4.27791 | 33220 ft | 434 kts | 80° |
| 2026-04-19 23:38 | 37.64628 | -4.24085 | 33516 ft | 432 kts | 80° |
| 2026-04-19 23:38 | 37.65304 | -4.20447 | 33797 ft | 431 kts | 80° |
| 2026-04-19 23:38 | 37.65989 | -4.16758 | 34079 ft | 430 kts | 80° |
| 2026-04-19 23:38 | 37.66668 | -4.13093 | 34327 ft | 430 kts | 80° |
| 2026-04-19 23:39 | 37.67343 | -4.09446 | 34526 ft | 430 kts | 80° |
| 2026-04-19 23:39 | 37.68021 | -4.05774 | 34702 ft | 431 kts | 80° |
| 2026-04-19 23:39 | 37.68701 | -4.02083 | 34883 ft | 431 kts | 80° |
| 2026-04-19 23:39 | 37.69379 | -3.98405 | 35051 ft | 432 kts | 80° |
| 2026-04-19 23:40 | 37.70056 | -3.94719 | 35204 ft | 432 kts | 80° |
| 2026-04-19 23:40 | 37.70732 | -3.91033 | 35354 ft | 433 kts | 80° |
| 2026-04-19 23:40 | 37.71413 | -3.87318 | 35498 ft | 434 kts | 80° |
| 2026-04-19 23:40 | 37.72091 | -3.83607 | 35632 ft | 434 kts | 80° |
| 2026-04-19 23:41 | 37.72762 | -3.79925 | 35763 ft | 435 kts | 80° |
| 2026-04-19 23:41 | 37.73442 | -3.76194 | 35891 ft | 435 kts | 80° |
| 2026-04-19 23:41 | 37.74119 | -3.72470 | 36011 ft | 436 kts | 80° |
| 2026-04-19 23:41 | 37.74789 | -3.68778 | 36104 ft | 437 kts | 80° |
| 2026-04-19 23:42 | 37.76146 | -3.61276 | 36111 ft | 437 kts | 80° |
| 2026-04-19 23:42 | 37.77490 | -3.53824 | 36114 ft | 437 kts | 80° |
| 2026-04-19 23:43 | 37.78833 | -3.46339 | 36115 ft | 437 kts | 80° |
| 2026-04-19 23:43 | 37.80171 | -3.38863 | 36115 ft | 437 kts | 80° |
| 2026-04-19 23:44 | 37.81502 | -3.31383 | 36116 ft | 437 kts | 81° |
| 2026-04-19 23:44 | 37.82823 | -3.23916 | 36116 ft | 437 kts | 81° |
| 2026-04-19 23:45 | 37.84141 | -3.16451 | 36116 ft | 437 kts | 81° |
| 2026-04-19 23:45 | 37.85463 | -3.08940 | 36114 ft | 437 kts | 81° |
| 2026-04-19 23:46 | 37.86775 | -3.01447 | 36113 ft | 440 kts | 81° |
| 2026-04-19 23:46 | 37.88093 | -2.93897 | 36110 ft | 443 kts | 81° |
| 2026-04-19 23:47 | 37.89422 | -2.86252 | 36108 ft | 446 kts | 81° |
| 2026-04-19 23:47 | 37.90747 | -2.78606 | 36105 ft | 447 kts | 81° |
| 2026-04-19 23:48 | 37.92076 | -2.70915 | 36097 ft | 447 kts | 81° |
| 2026-04-19 23:48 | 37.93391 | -2.63261 | 36086 ft | 447 kts | 81° |
| 2026-04-19 23:49 | 37.94053 | -2.59393 | 36080 ft | 447 kts | 81° |
| 2026-04-19 23:49 | 37.96010 | -2.47921 | 36073 ft | 447 kts | 81° |
| 2026-04-19 23:50 | 37.97313 | -2.40247 | 36074 ft | 447 kts | 81° |
| 2026-04-19 23:50 | 37.98613 | -2.32552 | 36080 ft | 447 kts | 81° |
| 2026-04-19 23:51 | 37.99907 | -2.24841 | 36086 ft | 447 kts | 81° |
| 2026-04-19 23:51 | 38.01193 | -2.17158 | 36093 ft | 447 kts | 81° |
| 2026-04-19 23:52 | 38.02477 | -2.09455 | 36099 ft | 447 kts | 81° |
| 2026-04-19 23:52 | 38.03757 | -2.01749 | 36101 ft | 446 kts | 81° |
| 2026-04-19 23:53 | 38.05028 | -1.94071 | 36099 ft | 447 kts | 81° |
| 2026-04-19 23:53 | 38.06298 | -1.86364 | 36095 ft | 446 kts | 81° |
| 2026-04-19 23:54 | 38.07558 | -1.78682 | 36092 ft | 447 kts | 81° |
| 2026-04-19 23:54 | 38.08818 | -1.70962 | 36091 ft | 447 kts | 81° |
| 2026-04-19 23:55 | 38.10066 | -1.63292 | 36091 ft | 447 kts | 81° |
| 2026-04-19 23:55 | 38.11341 | -1.55583 | 36091 ft | 447 kts | 81° |
| 2026-04-19 23:56 | 38.12603 | -1.47874 | 36091 ft | 447 kts | 81° |
| 2026-04-19 23:56 | 38.13844 | -1.40184 | 36091 ft | 447 kts | 81° |
| 2026-04-19 23:57 | 38.15081 | -1.32453 | 36092 ft | 447 kts | 82° |
| 2026-04-19 23:57 | 38.16304 | -1.24746 | 36091 ft | 446 kts | 82° |
| 2026-04-19 23:58 | 38.17525 | -1.17017 | 36090 ft | 447 kts | 82° |
| 2026-04-19 23:58 | 38.18744 | -1.09259 | 36090 ft | 449 kts | 81° |
| 2026-04-19 23:59 | 38.19961 | -1.01483 | 36090 ft | 451 kts | 81° |
| 2026-04-19 23:59 | 38.21180 | -0.93661 | 36091 ft | 453 kts | 80° |
| 2026-04-20 00:00 | 38.22395 | -0.85848 | 36090 ft | 453 kts | 80° |
| 2026-04-20 00:00 | 38.23619 | -0.77949 | 36091 ft | 453 kts | 80° |
| 2026-04-20 00:01 | 38.24827 | -0.70099 | 36090 ft | 453 kts | 80° |
| 2026-04-20 00:02 | 38.26817 | -0.58337 | 36091 ft | 454 kts | 76° |
| 2026-04-20 00:02 | 38.28841 | -0.50734 | 36100 ft | 456 kts | 69° |
| 2026-04-20 00:03 | 38.31210 | -0.43312 | 36109 ft | 455 kts | 69° |
| 2026-04-20 00:03 | 38.33606 | -0.35842 | 36113 ft | 456 kts | 69° |
| 2026-04-20 00:04 | 38.35973 | -0.28397 | 36115 ft | 456 kts | 69° |
| 2026-04-20 00:04 | 38.38423 | -0.20965 | 36115 ft | 456 kts | 69° |
| 2026-04-20 00:05 | 38.40901 | -0.13557 | 36115 ft | 456 kts | 69° |
| 2026-04-20 00:05 | 38.43376 | -0.06119 | 36116 ft | 456 kts | 69° |
| 2026-04-20 00:06 | 38.45819 | 0.01299 | 36115 ft | 455 kts | 69° |
| 2026-04-20 00:06 | 38.48220 | 0.08783 | 36115 ft | 456 kts | 69° |
| 2026-04-20 00:07 | 38.50603 | 0.16228 | 36116 ft | 456 kts | 69° |
| 2026-04-20 00:07 | 38.52999 | 0.23719 | 36116 ft | 456 kts | 69° |
| 2026-04-20 00:08 | 38.55391 | 0.31209 | 36115 ft | 456 kts | 69° |
| 2026-04-20 00:08 | 38.57767 | 0.38665 | 36115 ft | 456 kts | 69° |
| 2026-04-20 00:09 | 38.60148 | 0.46164 | 36115 ft | 455 kts | 69° |
| 2026-04-20 00:09 | 38.62513 | 0.53638 | 36114 ft | 456 kts | 69° |
| 2026-04-20 00:10 | 38.64862 | 0.61166 | 36115 ft | 455 kts | 71° |
| 2026-04-20 00:10 | 38.66720 | 0.68874 | 36114 ft | 454 kts | 78° |
| 2026-04-20 00:11 | 38.67891 | 0.76737 | 36116 ft | 452 kts | 83° |
| 2026-04-20 00:11 | 38.68774 | 0.84712 | 36116 ft | 452 kts | 83° |
| 2026-04-20 00:12 | 38.69642 | 0.92659 | 36115 ft | 452 kts | 83° |
| 2026-04-20 00:12 | 38.70505 | 1.00556 | 35543 ft | 448 kts | 83° |
| 2026-04-20 00:12 | 38.70935 | 1.04536 | 34586 ft | 456 kts | 83° |
| 2026-04-20 00:13 | 38.71368 | 1.08567 | 33491 ft | 465 kts | 82° |
| 2026-04-20 00:13 | 38.71808 | 1.12668 | 32483 ft | 471 kts | 82° |
| 2026-04-20 00:13 | 38.72256 | 1.16817 | 31601 ft | 473 kts | 82° |
| 2026-04-20 00:13 | 38.72709 | 1.20991 | 30786 ft | 472 kts | 82° |
| 2026-04-20 00:14 | 38.73156 | 1.25127 | 29938 ft | 472 kts | 82° |
| 2026-04-20 00:14 | 38.73597 | 1.29230 | 28999 ft | 474 kts | 82° |
| 2026-04-20 00:14 | 38.74044 | 1.33400 | 28147 ft | 473 kts | 82° |
| 2026-04-20 00:14 | 38.74482 | 1.37523 | 27524 ft | 467 kts | 82° |
| 2026-04-20 00:15 | 38.74918 | 1.41631 | 26952 ft | 461 kts | 82° |
| 2026-04-20 00:15 | 38.75342 | 1.45650 | 26413 ft | 455 kts | 82° |
| 2026-04-20 00:15 | 38.75761 | 1.49635 | 25883 ft | 450 kts | 82° |
| 2026-04-20 00:15 | 38.76174 | 1.53575 | 25361 ft | 444 kts | 82° |
| 2026-04-20 00:16 | 38.76579 | 1.57455 | 24847 ft | 440 kts | 82° |
| 2026-04-20 00:16 | 38.76979 | 1.61290 | 24336 ft | 436 kts | 82° |
| 2026-04-20 00:16 | 38.77380 | 1.65149 | 23821 ft | 431 kts | 82° |
| 2026-04-20 00:16 | 38.77767 | 1.68904 | 23316 ft | 428 kts | 82° |
| 2026-04-20 00:17 | 38.78153 | 1.72647 | 22813 ft | 424 kts | 82° |
| 2026-04-20 00:17 | 38.78535 | 1.76362 | 22310 ft | 420 kts | 82° |
| 2026-04-20 00:17 | 38.78914 | 1.80055 | 21812 ft | 416 kts | 82° |
| 2026-04-20 00:17 | 38.79288 | 1.83730 | 21302 ft | 413 kts | 82° |
| 2026-04-20 00:18 | 38.79662 | 1.87386 | 20794 ft | 409 kts | 82° |
| 2026-04-20 00:18 | 38.80283 | 1.90895 | 20288 ft | 405 kts | 71° |
| 2026-04-20 00:18 | 38.81405 | 1.94172 | 19789 ft | 401 kts | 60° |
| 2026-04-20 00:18 | 38.82947 | 1.97106 | 19303 ft | 397 kts | 52° |
| 2026-04-20 00:19 | 38.84632 | 1.99889 | 18811 ft | 393 kts | 51° |
| 2026-04-20 00:19 | 38.86306 | 2.02598 | 18328 ft | 390 kts | 51° |
| 2026-04-20 00:19 | 38.87969 | 2.05300 | 17845 ft | 387 kts | 51° |
| 2026-04-20 00:19 | 38.89619 | 2.07999 | 17364 ft | 384 kts | 51° |
| 2026-04-20 00:20 | 38.91264 | 2.10706 | 16876 ft | 381 kts | 51° |
| 2026-04-20 00:20 | 38.92869 | 2.13356 | 16397 ft | 379 kts | 51° |
| 2026-04-20 00:20 | 38.94472 | 2.16008 | 15916 ft | 376 kts | 51° |
| 2026-04-20 00:20 | 38.96069 | 2.18652 | 15451 ft | 373 kts | 51° |
| 2026-04-20 00:21 | 38.97663 | 2.21295 | 14981 ft | 370 kts | 51° |
| 2026-04-20 00:21 | 38.99213 | 2.23869 | 14520 ft | 368 kts | 51° |
| 2026-04-20 00:21 | 39.00773 | 2.26461 | 14051 ft | 366 kts | 50° |
| 2026-04-20 00:21 | 39.02323 | 2.29040 | 13585 ft | 363 kts | 50° |
| 2026-04-20 00:22 | 39.03855 | 2.31591 | 13125 ft | 361 kts | 50° |
| 2026-04-20 00:22 | 39.05373 | 2.34122 | 12669 ft | 358 kts | 50° |
| 2026-04-20 00:22 | 39.06886 | 2.36646 | 12214 ft | 356 kts | 50° |
| 2026-04-20 00:22 | 39.08396 | 2.39165 | 11767 ft | 353 kts | 50° |
| 2026-04-20 00:23 | 39.09874 | 2.41633 | 11614 ft | 339 kts | 50° |
| 2026-04-20 00:23 | 39.11279 | 2.43974 | 11509 ft | 326 kts | 50° |
| 2026-04-20 00:23 | 39.12637 | 2.46229 | 11415 ft | 312 kts | 50° |
| 2026-04-20 00:23 | 39.13937 | 2.48396 | 11332 ft | 299 kts | 50° |
| 2026-04-20 00:24 | 39.15212 | 2.50459 | 11160 ft | 291 kts | 46° |
| 2026-04-20 00:24 | 39.16656 | 2.52255 | 10820 ft | 288 kts | 37° |
| 2026-04-20 00:24 | 39.18257 | 2.53762 | 10496 ft | 285 kts | 32° |
| 2026-04-20 00:24 | 39.19891 | 2.55176 | 10175 ft | 284 kts | 31° |
| 2026-04-20 00:25 | 39.21519 | 2.56570 | 9859 ft | 282 kts | 32° |
| 2026-04-20 00:25 | 39.23136 | 2.57960 | 9546 ft | 280 kts | 32° |
| 2026-04-20 00:25 | 39.24761 | 2.59366 | 9232 ft | 279 kts | 32° |
| 2026-04-20 00:25 | 39.26356 | 2.60751 | 8925 ft | 277 kts | 32° |
| 2026-04-20 00:26 | 39.27947 | 2.62137 | 8620 ft | 276 kts | 32° |
| 2026-04-20 00:26 | 39.29528 | 2.63516 | 8318 ft | 274 kts | 33° |
| 2026-04-20 00:26 | 39.31103 | 2.64892 | 8019 ft | 272 kts | 33° |
| 2026-04-20 00:26 | 39.32659 | 2.66260 | 7724 ft | 270 kts | 34° |
| 2026-04-20 00:27 | 39.34198 | 2.67619 | 7432 ft | 269 kts | 34° |
| 2026-04-20 00:27 | 39.35748 | 2.68985 | 7139 ft | 267 kts | 34° |
| 2026-04-20 00:27 | 39.37268 | 2.70321 | 6853 ft | 265 kts | 34° |
| 2026-04-20 00:27 | 39.38773 | 2.71642 | 6570 ft | 264 kts | 34° |
| 2026-04-20 00:28 | 39.40298 | 2.72979 | 6284 ft | 262 kts | 34° |
| 2026-04-20 00:28 | 39.41789 | 2.74287 | 6004 ft | 260 kts | 34° |
| 2026-04-20 00:28 | 39.43266 | 2.75645 | 5726 ft | 266 kts | 43° |
| 2026-04-20 00:28 | 39.44436 | 2.77511 | 5451 ft | 271 kts | 58° |
| 2026-04-20 00:29 | 39.45418 | 2.79614 | 5173 ft | 270 kts | 61° |
| 2026-04-20 00:29 | 39.46341 | 2.81706 | 4900 ft | 269 kts | 61° |
| 2026-04-20 00:29 | 39.47258 | 2.83798 | 4625 ft | 267 kts | 60° |
| 2026-04-20 00:29 | 39.48246 | 2.85813 | 4352 ft | 266 kts | 57° |
| 2026-04-20 00:30 | 39.49288 | 2.87807 | 4075 ft | 265 kts | 57° |
| 2026-04-20 00:30 | 39.50320 | 2.89753 | 3801 ft | 263 kts | 54° |
| 2026-04-20 00:30 | 39.51662 | 2.91307 | 3630 ft | 256 kts | 23° |
| 2026-04-20 00:30 | 39.53368 | 2.91610 | 3525 ft | 245 kts | 354° |
| 2026-04-20 00:31 | 39.55007 | 2.91262 | 3376 ft | 237 kts | 351° |
| 2026-04-20 00:31 | 39.56623 | 2.90888 | 3194 ft | 230 kts | 352° |
| 2026-04-20 00:31 | 39.58177 | 2.90574 | 2957 ft | 226 kts | 353° |
| 2026-04-20 00:31 | 39.59730 | 2.90298 | 2678 ft | 224 kts | 352° |
| 2026-04-20 00:32 | 39.61158 | 2.89566 | 2325 ft | 225 kts | 319° |
| 2026-04-20 00:32 | 39.61846 | 2.87887 | 2149 ft | 206 kts | 277° |
| 2026-04-20 00:32 | 39.61473 | 2.86211 | 1885 ft | 195 kts | 233° |
| 2026-04-20 00:32 | 39.60557 | 2.85025 | 1696 ft | 177 kts | 220° |
| 2026-04-20 00:33 | 39.59665 | 2.84072 | 1505 ft | 158 kts | 220° |
| 2026-04-20 00:33 | 39.58919 | 2.83108 | 1243 ft | 147 kts | 229° |
| 2026-04-20 00:33 | 39.58348 | 2.82059 | 976 ft | 140 kts | 239° |
| 2026-04-20 00:33 | 39.57835 | 2.80974 | 770 ft | 140 kts | 237° |
| 2026-04-20 00:34 | 39.57317 | 2.79924 | 623 ft | 138 kts | 237° |
| 2026-04-20 00:34 | 39.56805 | 2.78860 | 558 ft | 139 kts | 237° |
| 2026-04-20 00:34 | 39.56309 | 2.77795 | 331 ft | 138 kts | 238° |
| 2026-04-20 00:34 | 39.55804 | 2.76738 | 152 ft | 137 kts | 238° |
| 2026-04-20 00:35 | 39.55307 | 2.75689 | 31 ft | 130 kts | 238° |
| 2026-04-20 00:35 | 39.54917 | 2.74851 | 30 ft | 85 kts | 239° |
| 2026-04-20 00:35 | 39.54695 | 2.74380 | 30 ft | 38 kts | 238° |
| 2026-04-20 00:35 | 39.54579 | 2.74102 | 30 ft | 35 kts | 248° |
| 2026-04-20 00:36 | 39.54549 | 2.73876 | 30 ft | 19 kts | 269° |
| 2026-04-20 00:36 | 39.54548 | 2.73771 | 30 ft | 7 kts | 268° |